Cle Elum, WA (98922)

3:07 PM PDT on April 25, 2015 (GMT -0700)
Cle Elum-Roslyn High School | | Change Station
CLOSE
Current Station
Personal Weather Station
Location: Cle Elum, WA
Elevation: 2107 ft
Nearby Weather Stations

Elev 2107 ft 47.20 °N, 120.97 °W | Updated 10 minutes ago

Clear
Clear
46.7 °F
Feels Like 47 °F
N
3.0
Wind Variable Wind from NNW

Today
High -- | Low -- °F
--% Chance of Precip.
Yesterday
High -- | Low -- °F
Precip. -- in
5:57 AM 8:06 PM
Waxing Crescent, 49% visible
Pressure 29.88 in
Visibility 10.0 miles
Clouds Clear
Windchill 47 °F
Dew Point 32 °F
Humidity 56%
Rainfall 0.00 in
Snow Depth Not available.
UV 2.6 out of 12
Pollen 9.40 out of 12
Air Quality Not available.
Flu Activity Regional
METAR KELN 252153Z AUTO 30020G29KT 10SM CLR 14/M02 A2987 RMK AO2 PK WND 31030/2103 SLP119 T01391022

More Conditions Fewer Conditions

Pressure 29.88 in
Visibility 10.0 miles
Clouds Clear
Windchill 47 °F
Dew Point 32 °F
Humidity 56%
Rainfall 0.00 in
Snow Depth Not available.
UV 2.6 out of 12
Pollen 9.40 out of 12
Air Quality Not available.
Flu Activity Regional
METAR KELN 252153Z AUTO 30020G29KT 10SM CLR 14/M02 A2987 RMK AO2 PK WND 31030/2103 SLP119 T01391022

More Conditions Fewer Conditions

10-Day Weather Forecast

Almanac

Astronomy

Apr. 25, 2015 Rise Set
Actual Time
Civil Twilight
Nautical Twilight
Astronomical Twilight
Moon
Length of Visible Light
Length of Day
Tomorrow will be .
, % of the Moon is Illuminated

Today's Extremes

State Highs State Lows

Community

WunderPhotos

Upload Photos

1,816,824 photos uploaded!

WunderBlogs® & News

Nearby

Air Quality

  Air Quality AQ Index Pollutant
Not available.

Snow Depth

Station Depth Elevation

Earthquake Activity

City Distance Mag. Time & Date
Minimum magnitude displayed is 2.5.

Coastal Water Temperatures

Place Temperature

Stations

Nearby Weather Stations

Station Location Temp. Windchill Dew Point Humidity Wind Precip. Elev Updated Type